CPX429 Details

Departure: Portland International Jetport (KPWM)
Arrival: Washington Dulles International Airport (KIAD) at N/A
Route: NUBLE3 BAF HYPER7
Notes: LOBSTER KING


Current Weather Information
KPWM 230728Z AUTO 01006KT 2SM RA BR FEW004 SCT010 OVC017 12/11 A2986 RMK AO2 P0026 T01220111
KIAD 230727Z 00000KT 10SM CLR 07/07 A2991 RMK AO2 T00720067 $